Time;durP1;ratioP1;P1;durP2;ratioP2;P2;SDS_P1;SDS_P2;PMS_P1;PMS_P2;Temp;Humidity;BMP_temperature;BMP_pressure;BME280_temperature;BME280_humidity;BME280_pressure;Samples;Min_cycle;Max_cycle;Signal;HPM_P1;HPM_P2
2022/03/16 00:00:18;;;;;;;38.35;25.40;;;5.30;99.90;;;;;;5003961;28;20042;-54
2022/03/16 00:02:46;;;;;;;;;;;5.30;99.90;;;;;;5007031;28;20517;-54
2022/03/16 00:05:12;;;;;;;39.17;26.80;;;5.30;99.90;;;;;;5005202;28;19988;-57
2022/03/16 00:07:38;;;;;;;40.10;27.23;;;5.30;99.90;;;;;;4991869;28;20077;-57
2022/03/16 00:10:07;;;;;;;40.83;28.92;;;5.30;99.90;;;;;;4993607;28;20507;-53
2022/03/16 00:12:34;;;;;;;34.67;24.20;;;5.30;99.90;;;;;;4989774;28;20153;-58
2022/03/16 00:14:59;;;;;;;32.75;24.08;;;5.30;99.90;;;;;;4998969;28;20042;-56
2022/03/16 00:17:25;;;;;;;51.37;33.33;;;5.40;99.90;;;;;;4990767;28;20080;-56
2022/03/16 00:19:51;;;;;;;49.80;33.92;;;5.40;99.90;;;;;;5003331;28;20041;-54
2022/03/16 00:22:17;;;;;;;55.73;32.17;;;5.40;99.90;;;;;;5003549;28;20038;-53
2022/03/16 00:24:42;;;;;;;47.40;29.02;;;5.40;99.90;;;;;;4996500;28;20439;-53
2022/03/16 00:27:08;;;;;;;33.65;23.92;;;5.50;99.90;;;;;;4993512;28;20590;-54
2022/03/16 00:29:34;;;;;;;42.37;22.70;;;5.50;99.90;;;;;;4991251;28;20042;-56
2022/03/16 00:31:59;;;;;;;46.83;22.40;;;5.50;99.90;;;;;;5004917;28;20152;-57
2022/03/16 00:34:25;;;;;;;128.48;22.65;;;5.40;99.90;;;;;;5004889;28;20030;-56
2022/03/16 00:36:51;;;;;;;179.95;25.23;;;5.40;99.90;;;;;;4996120;28;20038;-53
2022/03/16 00:39:17;;;;;;;282.93;27.33;;;5.40;99.90;;;;;;5002382;28;20049;-53
2022/03/16 00:41:42;;;;;;;66.83;14.63;;;5.30;99.90;;;;;;5004711;28;20048;-57
2022/03/16 00:44:08;;;;;;;52.53;10.37;;;5.20;99.90;;;;;;5000400;28;20104;-55
2022/03/16 00:46:34;;;;;;;142.10;11.57;;;5.10;99.90;;;;;;5007634;28;20380;-53
2022/03/16 00:48:59;;;;;;;107.77;12.77;;;5.00;99.90;;;;;;4995039;28;20093;-53
2022/03/16 00:51:25;;;;;;;29.38;13.20;;;4.90;99.90;;;;;;4993159;28;20340;-55
2022/03/16 00:53:52;;;;;;;20.88;14.52;;;4.80;99.90;;;;;;4997257;28;20034;-54
2022/03/16 00:56:18;;;;;;;32.10;20.95;;;4.70;99.90;;;;;;4993513;28;20046;-55
2022/03/16 00:58:43;;;;;;;50.53;29.50;;;4.70;99.90;;;;;;5005136;28;20388;-53
2022/03/16 01:01:09;;;;;;;46.67;28.50;;;4.70;99.90;;;;;;5001751;28;20121;-54
2022/03/16 01:03:35;;;;;;;94.20;34.83;;;4.70;99.90;;;;;;5003547;28;20042;-56
2022/03/16 01:06:02;;;;;;;41.97;27.58;;;4.70;99.90;;;;;;5007299;28;20076;-57
2022/03/16 01:08:28;;;;;;;40.58;26.10;;;4.70;99.90;;;;;;5005461;28;20034;-54
2022/03/16 01:10:54;;;;;;;41.85;27.70;;;4.70;99.90;;;;;;4998975;28;20045;-56
2022/03/16 01:13:19;;;;;;;42.50;28.20;;;4.70;99.90;;;;;;4998939;28;20042;-53
2022/03/16 01:15:45;;;;;;;43.47;28.17;;;4.70;99.90;;;;;;5012171;28;20339;-54
2022/03/16 01:18:11;;;;;;;45.63;27.47;;;4.80;99.90;;;;;;5004862;28;20488;-56
2022/03/16 01:20:36;;;;;;;63.30;26.47;;;4.80;99.90;;;;;;5004782;28;20091;-56
2022/03/16 01:23:02;;;;;;;153.77;26.23;;;4.80;99.90;;;;;;5009328;28;20038;-53
2022/03/16 01:25:28;;;;;;;27.88;20.40;;;4.70;99.90;;;;;;4993888;28;20586;-54
2022/03/16 01:27:53;;;;;;;43.20;27.85;;;4.70;99.90;;;;;;4993610;28;20050;-53
2022/03/16 01:30:19;;;;;;;62.83;33.17;;;4.60;99.90;;;;;;5005559;28;20100;-53
2022/03/16 01:32:45;;;;;;;71.93;38.25;;;4.60;99.90;;;;;;5011142;28;20521;-56
2022/03/16 01:35:11;;;;;;;67.00;37.30;;;4.70;99.90;;;;;;4994691;28;20113;-53
2022/03/16 01:37:37;;;;;;;73.47;39.78;;;4.70;99.90;;;;;;4998519;28;20470;-52
2022/03/16 01:40:05;;;;;;;71.07;41.08;;;4.70;99.90;;;;;;4996514;28;20048;-52
2022/03/16 01:42:31;;;;;;;73.10;38.95;;;4.70;99.90;;;;;;5011460;28;20046;-53
2022/03/16 01:44:57;;;;;;;61.50;37.83;;;4.70;99.90;;;;;;4998659;28;20106;-54
2022/03/16 01:47:24;;;;;;;65.10;36.60;;;4.80;99.90;;;;;;4993085;28;20046;-53
2022/03/16 01:49:52;;;;;;;64.25;35.70;;;4.80;99.90;;;;;;4998432;28;20085;-55
2022/03/16 01:52:23;;;;;;;58.40;34.53;;;4.80;99.90;;;;;;5005993;28;20041;-55
2022/03/16 01:54:49;;;;;;;50.00;31.35;;;4.80;99.90;;;;;;5003639;28;20088;-54
2022/03/16 01:57:15;;;;;;;48.30;30.45;;;4.80;99.90;;;;;;4993347;28;20030;-57
2022/03/16 01:59:42;;;;;;;47.92;30.33;;;4.80;99.90;;;;;;5001161;28;20089;-55
2022/03/16 02:02:09;;;;;;;39.83;26.67;;;4.80;99.90;;;;;;4993677;28;20061;-54
2022/03/16 02:04:35;;;;;;;84.43;25.85;;;4.70;99.90;;;;;;4994236;28;20046;-55
2022/03/16 02:07:02;;;;;;;66.63;24.92;;;4.60;99.90;;;;;;4991766;28;20458;-56
2022/03/16 02:09:28;;;;;;;35.25;24.55;;;4.60;99.90;;;;;;4999955;28;20416;-54
2022/03/16 02:11:53;;;;;;;35.92;24.83;;;4.50;99.90;;;;;;5010607;28;20038;-53
2022/03/16 02:14:19;;;;;;;33.43;23.53;;;4.50;99.90;;;;;;5009840;28;20053;-56
2022/03/16 02:16:45;;;;;;;45.70;27.83;;;4.50;99.90;;;;;;4998164;28;20069;-54
2022/03/16 02:19:11;;;;;;;43.58;19.58;;;4.50;99.90;;;;;;4993851;28;20085;-56
2022/03/16 02:21:40;;;;;;;26.57;21.20;;;4.30;99.90;;;;;;5009870;28;20276;-54
2022/03/16 02:24:06;;;;;;;36.75;23.92;;;4.20;99.90;;;;;;5008803;28;20049;-55
2022/03/16 02:26:32;;;;;;;29.95;22.42;;;4.20;99.90;;;;;;5000401;28;20042;-53
2022/03/16 02:28:58;;;;;;;39.15;28.48;;;4.20;99.90;;;;;;5009737;28;20061;-57
2022/03/16 02:31:24;;;;;;;177.20;36.43;;;4.00;99.90;;;;;;4992687;28;20042;-55
2022/03/16 02:33:50;;;;;;;36.00;24.95;;;3.90;99.90;;;;;;4992469;28;20117;-55
2022/03/16 02:36:16;;;;;;;41.22;24.15;;;3.80;99.90;;;;;;5008085;28;20034;-53
2022/03/16 02:38:42;;;;;;;30.83;22.67;;;3.80;99.90;;;;;;4997697;28;20045;-54
2022/03/16 02:41:07;;;;;;;27.90;21.10;;;3.70;99.90;;;;;;5008820;28;20192;-56
2022/03/16 02:43:33;;;;;;;33.63;24.97;;;3.70;99.90;;;;;;5010878;28;20073;-56
2022/03/16 02:45:59;;;;;;;32.17;22.08;;;3.70;99.90;;;;;;4997668;28;20041;-56
2022/03/16 02:48:24;;;;;;;33.38;20.40;;;3.80;99.90;;;;;;4993340;28;20527;-52
2022/03/16 02:50:50;;;;;;;28.60;21.67;;;3.80;99.90;;;;;;5004891;28;20109;-55
2022/03/16 02:53:16;;;;;;;27.37;20.00;;;3.80;99.90;;;;;;5010761;28;20033;-57
2022/03/16 02:55:44;;;;;;;31.07;21.87;;;3.80;99.90;;;;;;4999763;28;20038;-55
2022/03/16 02:58:10;;;;;;;27.30;21.08;;;3.80;99.90;;;;;;4993511;28;20080;-57
2022/03/16 03:00:36;;;;;;;26.67;18.58;;;3.80;99.90;;;;;;5000810;28;20102;-55
2022/03/16 03:03:01;;;;;;;24.88;19.63;;;3.80;99.90;;;;;;4991947;28;20520;-54
2022/03/16 03:05:27;;;;;;;34.17;22.57;;;3.80;99.90;;;;;;4993308;28;20035;-55
2022/03/16 03:07:53;;;;;;;24.92;18.77;;;3.80;99.90;;;;;;4992714;28;20038;-53
2022/03/16 03:10:18;;;;;;;24.80;19.00;;;3.80;99.90;;;;;;4998427;28;20484;-58
2022/03/16 03:12:44;;;;;;;21.60;17.93;;;3.70;99.90;;;;;;5004812;28;20042;-57
2022/03/16 03:15:11;;;;;;;17.33;14.73;;;3.60;99.90;;;;;;4995866;28;20077;-54
2022/03/16 03:17:37;;;;;;;16.50;14.70;;;3.50;99.90;;;;;;5004432;28;20102;-57
2022/03/16 03:20:04;;;;;;;17.25;14.32;;;3.40;99.90;;;;;;5010134;28;20415;-57
2022/03/16 03:22:29;;;;;;;21.90;17.23;;;3.40;99.90;;;;;;5008935;28;20124;-56
2022/03/16 03:24:56;;;;;;;30.17;21.10;;;3.30;99.90;;;;;;5010103;28;20116;-57
2022/03/16 03:27:22;;;;;;;31.85;21.17;;;3.40;99.90;;;;;;4992224;28;20089;-57
2022/03/16 03:29:48;;;;;;;40.78;24.02;;;3.40;99.90;;;;;;5008572;28;20089;-55
2022/03/16 03:32:13;;;;;;;37.60;24.77;;;3.40;99.90;;;;;;5009028;28;20389;-56
2022/03/16 03:34:39;;;;;;;35.33;24.50;;;3.20;99.90;;;;;;4994676;28;20046;-57
2022/03/16 03:37:06;;;;;;;36.93;22.93;;;3.10;99.90;;;;;;5001873;28;20515;-57
2022/03/16 03:39:31;;;;;;;;;;;3.00;99.90;;;;;;4994924;28;20538;-55
2022/03/16 03:41:57;;;;;;;43.85;26.83;;;3.10;99.90;;;;;;5004715;28;19918;-58
2022/03/16 03:44:23;;;;;;;43.97;27.40;;;3.10;99.90;;;;;;4996227;28;20040;-53
2022/03/16 03:46:48;;;;;;;44.20;28.20;;;3.20;99.90;;;;;;5003146;28;20049;-54
2022/03/16 03:49:14;;;;;;;42.93;28.80;;;3.30;99.90;;;;;;4991945;28;20081;-57
2022/03/16 03:51:39;;;;;;;38.07;24.90;;;3.30;99.90;;;;;;5001631;28;20073;-58
2022/03/16 03:54:05;;;;;;;36.00;23.87;;;3.30;99.90;;;;;;5010499;28;20040;-53
2022/03/16 03:56:30;;;;;;;34.60;24.77;;;3.20;99.90;;;;;;5002775;28;20034;-59
2022/03/16 03:58:56;;;;;;;36.57;23.13;;;3.10;99.90;;;;;;4997540;28;20053;-56
2022/03/16 04:01:21;;;;;;;32.47;23.07;;;3.10;99.90;;;;;;4996723;28;20044;-56
2022/03/16 04:03:47;;;;;;;33.00;21.87;;;3.10;99.90;;;;;;4999649;28;20061;-55
2022/03/16 04:06:13;;;;;;;31.77;21.43;;;3.10;99.90;;;;;;4995558;28;20033;-54
2022/03/16 04:08:38;;;;;;;33.30;23.50;;;3.10;99.90;;;;;;5003351;28;20042;-54
2022/03/16 04:11:04;;;;;;;40.70;25.40;;;3.10;99.90;;;;;;4993785;28;20500;-56
2022/03/16 04:13:30;;;;;;;38.70;25.00;;;3.10;99.90;;;;;;5009921;28;20034;-55
2022/03/16 04:15:55;;;;;;;34.97;24.97;;;3.10;99.90;;;;;;5006793;28;20058;-57
2022/03/16 04:18:21;;;;;;;39.23;26.67;;;3.10;99.90;;;;;;4997876;28;20466;-58
2022/03/16 04:20:47;;;;;;;48.97;28.03;;;3.10;99.90;;;;;;4990905;28;20281;-56
2022/03/16 04:23:12;;;;;;;41.47;27.67;;;3.20;99.90;;;;;;5007947;28;20045;-56
2022/03/16 04:25:38;;;;;;;47.70;30.37;;;3.30;99.90;;;;;;4998551;28;20064;-57
2022/03/16 04:28:03;;;;;;;45.37;29.97;;;3.30;99.90;;;;;;5008334;28;20080;-57
2022/03/16 04:30:29;;;;;;;42.23;27.07;;;3.30;99.90;;;;;;5012169;28;20124;-57
2022/03/16 04:32:54;;;;;;;34.00;24.30;;;3.30;99.90;;;;;;4997198;28;20042;-56
2022/03/16 04:35:20;;;;;;;37.83;25.33;;;3.30;99.90;;;;;;4999601;28;20041;-57
2022/03/16 04:37:49;;;;;;;38.90;25.55;;;3.20;99.90;;;;;;5013462;28;20045;-57
2022/03/16 04:40:14;;;;;;;39.55;24.38;;;3.20;99.90;;;;;;5006692;28;20033;-58
2022/03/16 04:42:40;;;;;;;37.57;24.60;;;3.20;99.90;;;;;;5006982;28;20443;-55
2022/03/16 04:45:06;;;;;;;38.10;24.73;;;3.10;99.90;;;;;;5002973;28;20141;-57
2022/03/16 04:47:32;;;;;;;41.83;26.65;;;3.10;99.90;;;;;;5011982;28;20368;-56
2022/03/16 04:49:57;;;;;;;45.83;29.33;;;3.10;99.90;;;;;;5010952;28;20052;-57
2022/03/16 04:52:25;;;;;;;45.90;26.33;;;3.10;99.90;;;;;;5013466;28;20033;-55
2022/03/16 04:54:50;;;;;;;41.63;27.60;;;3.10;99.90;;;;;;5013627;28;20069;-57
2022/03/16 04:57:16;;;;;;;47.30;29.57;;;3.20;99.90;;;;;;4997457;28;20479;-56
2022/03/16 04:59:42;;;;;;;49.23;30.17;;;3.20;99.90;;;;;;4997501;28;20040;-58
2022/03/16 05:02:07;;;;;;;42.23;28.17;;;3.20;99.90;;;;;;5010198;28;20585;-54
2022/03/16 05:04:33;;;;;;;43.73;27.90;;;3.20;99.90;;;;;;5013076;28;20499;-54
2022/03/16 05:06:58;;;;;;;47.03;28.53;;;3.20;99.90;;;;;;5005514;28;20403;-55
2022/03/16 05:09:24;;;;;;;31.00;21.73;;;3.20;99.90;;;;;;5012397;28;20109;-56
2022/03/16 05:11:49;;;;;;;35.47;22.57;;;3.20;99.90;;;;;;4998005;28;20117;-56
2022/03/16 05:14:15;;;;;;;41.63;25.50;;;3.10;99.90;;;;;;4993737;28;20508;-57
2022/03/16 05:16:41;;;;;;;48.80;30.53;;;3.20;99.90;;;;;;5003730;28;20038;-57
2022/03/16 05:19:06;;;;;;;38.67;24.43;;;3.20;99.90;;;;;;4997951;28;20121;-56
2022/03/16 05:21:32;;;;;;;27.70;21.33;;;3.20;99.90;;;;;;5011338;28;20491;-54
2022/03/16 05:23:57;;;;;;;31.27;23.30;;;3.10;99.90;;;;;;5012839;28;20042;-55
2022/03/16 05:26:23;;;;;;;36.23;24.80;;;3.10;99.90;;;;;;5005950;28;20061;-58
2022/03/16 05:28:48;;;;;;;43.80;27.47;;;3.10;99.90;;;;;;4994469;28;20073;-55
2022/03/16 05:31:14;;;;;;;35.50;25.27;;;3.10;99.90;;;;;;4998555;28;20107;-54
2022/03/16 05:33:40;;;;;;;40.13;27.00;;;3.10;99.90;;;;;;5005262;28;20030;-53
2022/03/16 05:36:05;;;;;;;38.93;26.43;;;3.20;99.90;;;;;;4994457;28;20117;-56
2022/03/16 05:38:31;;;;;;;32.67;23.57;;;3.20;99.90;;;;;;5004735;28;20484;-56
2022/03/16 05:40:57;;;;;;;40.23;26.17;;;3.20;99.90;;;;;;4993455;28;20054;-57
2022/03/16 05:43:23;;;;;;;40.63;27.48;;;3.20;99.90;;;;;;5003296;28;20057;-57
2022/03/16 05:45:52;;;;;;;39.03;26.52;;;3.20;99.90;;;;;;5011222;28;20054;-55
2022/03/16 05:48:17;;;;;;;46.45;25.70;;;3.20;99.90;;;;;;5002512;28;20038;-57
2022/03/16 05:50:45;;;;;;;36.20;24.63;;;3.10;99.90;;;;;;4991869;28;20038;-55
2022/03/16 05:53:11;;;;;;;39.13;25.48;;;3.00;99.90;;;;;;4994469;28;20109;-54
2022/03/16 05:55:37;;;;;;;48.28;29.10;;;2.90;99.90;;;;;;5001451;28;20042;-55
2022/03/16 05:58:02;;;;;;;119.13;33.07;;;2.80;99.90;;;;;;5001649;28;20508;-56
2022/03/16 06:00:28;;;;;;;86.03;28.23;;;2.70;99.90;;;;;;4999566;28;20054;-53
2022/03/16 06:02:54;;;;;;;90.57;27.92;;;2.60;99.90;;;;;;5001642;28;20042;-56
2022/03/16 06:05:20;;;;;;;30.17;22.15;;;2.60;99.90;;;;;;5002883;28;20056;-56
2022/03/16 06:07:45;;;;;;;41.40;27.53;;;2.60;99.90;;;;;;5004503;28;20043;-53
2022/03/16 06:10:17;;;;;;;42.40;26.47;;;2.70;99.90;;;;;;5001430;28;20290;-56
2022/03/16 06:12:53;;;;;;;42.38;29.05;;;2.80;99.90;;;;;;5003120;28;20038;-52
2022/03/16 06:15:19;;;;;;;44.58;30.27;;;2.90;99.90;;;;;;5002560;28;20022;-52
2022/03/16 06:17:45;;;;;;;40.07;28.23;;;3.10;99.90;;;;;;5003202;28;20065;-54
2022/03/16 06:20:10;;;;;;;39.33;27.07;;;3.10;99.90;;;;;;5008474;28;20347;-52
2022/03/16 06:22:36;;;;;;;40.17;27.48;;;3.20;99.90;;;;;;5012449;28;20038;-57
2022/03/16 06:25:02;;;;;;;41.53;26.27;;;3.40;99.90;;;;;;4995577;28;20038;-53
2022/03/16 06:27:27;;;;;;;63.90;29.53;;;3.60;99.90;;;;;;4992813;28;20440;-52
2022/03/16 06:29:53;;;;;;;36.87;27.23;;;3.70;99.90;;;;;;5004222;28;20057;-55
2022/03/16 06:32:18;;;;;;;39.67;28.20;;;3.60;99.90;;;;;;5007380;28;20096;-56
2022/03/16 06:34:45;;;;;;;38.87;28.73;;;3.60;99.90;;;;;;5003363;28;20050;-53
2022/03/16 06:37:11;;;;;;;40.05;26.17;;;3.60;99.90;;;;;;4997020;28;20038;-56
2022/03/16 06:39:37;;;;;;;50.93;28.73;;;3.70;99.90;;;;;;5008386;28;20044;-56
2022/03/16 06:42:03;;;;;;;43.10;29.13;;;3.70;99.90;;;;;;5008219;28;20046;-56
2022/03/16 06:44:29;;;;;;;46.92;30.67;;;3.90;99.90;;;;;;4997753;28;20109;-56
2022/03/16 06:46:55;;;;;;;38.45;26.98;;;4.10;99.90;;;;;;5005251;28;20559;-56
2022/03/16 06:49:20;;;;;;;29.23;23.43;;;4.50;99.90;;;;;;5009524;28;20125;-53
2022/03/16 06:51:46;;;;;;;37.00;24.20;;;4.90;99.90;;;;;;4990257;28;20141;-54
2022/03/16 06:54:12;;;;;;;37.97;25.00;;;5.20;99.90;;;;;;4993000;28;20073;-52
2022/03/16 06:56:38;;;;;;;36.63;24.60;;;5.40;99.90;;;;;;5012009;28;20041;-55
2022/03/16 06:59:03;;;;;;;36.55;26.73;;;5.40;99.90;;;;;;4996495;28;20046;-56
2022/03/16 07:01:29;;;;;;;37.67;26.67;;;5.40;99.90;;;;;;4993483;28;20069;-55
2022/03/16 07:03:55;;;;;;;41.93;28.90;;;5.30;99.90;;;;;;4998325;28;20037;-53
2022/03/16 07:06:20;;;;;;;42.37;30.80;;;5.10;99.90;;;;;;5010395;28;20038;-52
2022/03/16 07:08:46;;;;;;;42.03;29.53;;;5.00;99.90;;;;;;5011468;28;20049;-56
2022/03/16 07:11:12;;;;;;;46.13;30.75;;;4.90;99.90;;;;;;4998701;28;20053;-55
2022/03/16 07:13:41;;;;;;;47.75;34.25;;;4.80;99.90;;;;;;4991468;28;20034;-54
2022/03/16 07:16:07;;;;;;;44.85;31.90;;;4.70;99.90;;;;;;5006191;28;20038;-53
2022/03/16 07:18:33;;;;;;;58.07;35.63;;;4.70;99.90;;;;;;5009269;28;20049;-56
2022/03/16 07:20:59;;;;;;;56.23;35.20;;;4.70;99.90;;;;;;5009147;28;20305;-53
2022/03/16 07:23:25;;;;;;;50.92;35.20;;;4.70;99.90;;;;;;4993365;28;20039;-57
2022/03/16 07:25:52;;;;;;;48.90;35.28;;;4.70;99.90;;;;;;4992255;28;20125;-53
2022/03/16 07:28:19;;;;;;;45.58;31.83;;;4.70;99.90;;;;;;4991202;28;20048;-56
2022/03/16 07:30:45;;;;;;;51.30;33.72;;;4.80;99.90;;;;;;4992359;28;20069;-57
2022/03/16 07:33:13;;;;;;;45.20;32.95;;;4.90;99.90;;;;;;4991229;28;20069;-56
2022/03/16 07:35:39;;;;;;;53.45;33.75;;;5.00;99.90;;;;;;4990491;28;20177;-57
2022/03/16 07:38:05;;;;;;;48.28;34.58;;;5.20;99.90;;;;;;4991317;28;20081;-58
2022/03/16 07:40:36;;;;;;;49.17;35.63;;;5.40;99.90;;;;;;4992179;28;20073;-55
2022/03/16 07:43:03;;;;;;;47.53;35.38;;;5.50;99.90;;;;;;4992299;28;20034;-56
2022/03/16 07:45:28;;;;;;;;;;;5.60;99.90;;;;;;5001853;28;20497;-56
2022/03/16 07:47:55;;;;;;;44.30;34.08;;;5.70;99.90;;;;;;5000476;28;19972;-55
2022/03/16 07:50:21;;;;;;;46.05;35.92;;;5.70;99.90;;;;;;5010226;28;20041;-56
2022/03/16 07:52:47;;;;;;;51.17;36.22;;;5.80;99.90;;;;;;5009057;28;20110;-57
2022/03/16 07:55:14;;;;;;;42.97;31.63;;;5.80;99.90;;;;;;5005395;28;20034;-57
2022/03/16 07:57:40;;;;;;;45.55;32.25;;;5.90;99.90;;;;;;4992328;28;20113;-55
2022/03/16 08:00:10;;;;;;;48.78;32.50;;;6.00;99.90;;;;;;5002218;28;20129;-57
2022/03/16 08:02:37;;;;;;;48.00;33.42;;;6.10;99.90;;;;;;5008887;28;20045;-56
2022/03/16 08:05:03;;;;;;;46.15;33.42;;;6.20;99.90;;;;;;5001123;28;20045;-56
2022/03/16 08:07:30;;;;;;;45.58;33.35;;;6.40;99.90;;;;;;5002631;28;20103;-58
2022/03/16 08:09:56;;;;;;;;;;;6.50;99.90;;;;;;4998355;28;20530;-56
2022/03/16 08:12:22;;;;;;;47.67;34.85;;;6.60;99.90;;;;;;4995699;28;19917;-54
2022/03/16 08:14:48;;;;;;;54.95;39.22;;;6.70;99.90;;;;;;4994168;28;20076;-56
2022/03/16 08:17:14;;;;;;;54.58;38.08;;;6.90;99.90;;;;;;5005486;28;20044;-56
2022/03/16 08:19:40;;;;;;;49.70;34.85;;;7.10;99.90;;;;;;5009303;28;20129;-56
2022/03/16 08:22:05;;;;;;;47.50;32.80;;;7.30;99.90;;;;;;5009613;28;20065;-58
2022/03/16 08:24:31;;;;;;;43.73;31.97;;;7.40;99.90;;;;;;5008842;28;20045;-55
2022/03/16 08:26:56;;;;;;;42.73;30.97;;;7.50;99.90;;;;;;4990782;28;20045;-53
2022/03/16 08:29:22;;;;;;;44.63;33.77;;;7.60;99.90;;;;;;5005114;28;20479;-56
2022/03/16 08:31:47;;;;;;;40.50;31.47;;;7.70;99.90;;;;;;5001932;28;20125;-57
2022/03/16 08:34:13;;;;;;;42.77;29.83;;;7.70;99.90;;;;;;4995792;28;20117;-57
2022/03/16 08:36:39;;;;;;;44.70;33.33;;;7.80;99.90;;;;;;4995746;28;20042;-57
2022/03/16 08:39:05;;;;;;;45.97;33.38;;;8.00;99.90;;;;;;4999577;28;20069;-57
2022/03/16 08:41:35;;;;;;;44.53;31.05;;;8.10;99.90;;;;;;4997701;28;20054;-57
2022/03/16 08:44:04;;;;;;;44.75;31.40;;;8.30;99.90;;;;;;4997214;28;20046;-57
2022/03/16 08:46:30;;;;;;;45.28;32.28;;;8.40;99.90;;;;;;4997677;28;20061;-58
2022/03/16 08:48:56;;;;;;;39.88;30.95;;;8.60;99.90;;;;;;5001854;28;20041;-59
2022/03/16 08:51:22;;;;;;;46.30;30.37;;;8.80;99.90;;;;;;5000478;28;20271;-59
2022/03/16 08:53:47;;;;;;;45.83;31.10;;;8.80;99.90;;;;;;5001057;28;20060;-60
2022/03/16 08:56:13;;;;;;;41.27;29.97;;;8.90;99.90;;;;;;5002520;28;20774;-57
2022/03/16 08:58:39;;;;;;;43.88;29.85;;;9.00;99.90;;;;;;5002892;28;20061;-57
2022/03/16 09:01:05;;;;;;;37.57;28.60;;;9.00;99.90;;;;;;5003346;28;20045;-59
2022/03/16 09:03:31;;;;;;;42.53;28.38;;;9.10;99.90;;;;;;5002250;28;20053;-60
2022/03/16 09:05:57;;;;;;;37.13;28.05;;;9.10;99.90;;;;;;5001113;28;20045;-61
2022/03/16 09:08:22;;;;;;;36.10;27.20;;;9.20;99.90;;;;;;5004446;28;20088;-58
2022/03/16 09:10:50;;;;;;;33.73;24.77;;;9.30;99.90;;;;;;5000569;28;20068;-58
2022/03/16 09:13:16;;;;;;;34.38;26.05;;;9.40;99.90;;;;;;5003343;28;20040;-60
2022/03/16 09:15:45;;;;;;;32.70;22.48;;;9.50;99.90;;;;;;4999430;28;20038;-61
2022/03/16 09:18:11;;;;;;;31.23;23.05;;;9.60;99.90;;;;;;5007723;28;20438;-57
2022/03/16 09:20:37;;;;;;;;;;;9.70;99.90;;;;;;5004022;28;20139;-58
2022/03/16 09:23:03;;;;;;;33.97;21.85;;;9.90;99.90;;;;;;5002979;28;19918;-61
2022/03/16 09:25:29;;;;;;;32.20;23.42;;;10.00;99.90;;;;;;4997704;28;20220;-61
2022/03/16 09:27:54;;;;;;;29.47;21.83;;;10.20;99.90;;;;;;5005542;28;20042;-58
2022/03/16 09:30:23;;;;;;;34.67;23.07;;;10.30;99.90;;;;;;5007603;28;20037;-59
2022/03/16 09:32:48;;;;;;;29.50;21.15;;;10.50;99.90;;;;;;5007058;28;20046;-59
2022/03/16 09:35:14;;;;;;;27.70;20.63;;;10.60;99.90;;;;;;5007464;28;20033;-60
2022/03/16 09:37:40;;;;;;;26.83;20.88;;;10.70;99.90;;;;;;5005993;28;20048;-62
2022/03/16 09:40:07;;;;;;;28.67;21.20;;;10.80;99.90;;;;;;5002828;28;20183;-61
2022/03/16 09:42:33;;;;;;;30.58;20.42;;;11.00;99.90;;;;;;5007380;28;20530;-59
2022/03/16 09:45:02;;;;;;;26.70;19.90;;;11.10;99.90;;;;;;5007706;28;20038;-61
2022/03/16 09:47:29;;;;;;;26.15;19.30;;;11.20;99.90;;;;;;4989063;28;20054;-62
2022/03/16 09:49:55;;;;;;;29.83;21.02;;;11.30;99.90;;;;;;5001778;28;20046;-57
2022/03/16 09:52:23;;;;;;;27.25;19.58;;;11.30;99.90;;;;;;5006928;28;20406;-61
2022/03/16 09:54:50;;;;;;;26.58;19.20;;;11.50;99.90;;;;;;5005029;28;20121;-59
2022/03/16 09:57:15;;;;;;;26.25;19.15;;;11.60;99.90;;;;;;5004238;28;20510;-60
2022/03/16 09:59:42;;;;;;;26.50;18.50;;;11.80;99.90;;;;;;5006799;28;20109;-61
2022/03/16 10:02:14;;;;;;;23.02;17.50;;;11.90;99.90;;;;;;5005241;28;20059;-57
2022/03/16 10:04:41;;;;;;;22.95;17.63;;;12.00;99.90;;;;;;5007084;28;20042;-61
2022/03/16 10:07:07;;;;;;;21.88;16.75;;;12.00;99.90;;;;;;5003094;28;20042;-61
2022/03/16 10:15:12;;;;;;;24.88;15.85;;;12.30;99.90;;;;;;5007032;28;20042;-62
2022/03/16 10:17:44;;;;;;;19.92;15.10;;;12.40;99.90;;;;;;5002957;28;20213;-61
2022/03/16 10:20:28;;;;;;;17.85;14.25;;;12.40;98.90;;;;;;5005940;28;20038;-62
2022/03/16 10:23:04;;;;;;;21.48;15.00;;;12.30;97.00;;;;;;5004161;28;20052;-62
2022/03/16 10:25:35;;;;;;;24.00;14.98;;;12.30;98.60;;;;;;5003079;28;20057;-61
2022/03/16 10:28:17;;;;;;;17.27;13.45;;;12.40;97.10;;;;;;5004203;28;20571;-60
2022/03/16 10:30:56;;;;;;;19.60;14.85;;;12.40;97.00;;;;;;5006666;28;20042;-60
2022/03/16 10:33:33;;;;;;;20.80;14.60;;;12.40;95.70;;;;;;4992911;28;20042;-62
2022/03/16 10:36:13;;;;;;;19.65;14.93;;;12.30;97.10;;;;;;4988075;28;20062;-62
2022/03/16 10:38:41;;;;;;;21.40;14.35;;;12.10;95.80;;;;;;5000756;28;20373;-61
2022/03/16 10:41:12;;;;;;;19.80;14.38;;;12.10;98.00;;;;;;5000042;28;20045;-61
2022/03/16 10:46:35;;;;;;;21.33;16.00;;;12.10;95.80;;;;;;5000789;28;20050;-60
2022/03/16 10:49:06;;;;;;;21.55;14.75;;;12.20;98.20;;;;;;5004457;28;20042;-62
2022/03/16 10:51:34;;;;;;;22.20;15.63;;;12.30;96.10;;;;;;5000364;28;20052;-62
2022/03/16 10:54:02;;;;;;;20.10;14.63;;;12.40;97.20;;;;;;5007528;28;20046;-59
2022/03/16 10:56:28;;;;;;;20.52;14.45;;;12.60;98.60;;;;;;4995712;28;20042;-61
2022/03/16 10:58:54;;;;;;;20.63;15.32;;;12.60;95.60;;;;;;5002146;28;20068;-61
2022/03/16 11:01:22;;;;;;;25.88;16.30;;;12.70;95.40;;;;;;4998502;28;20042;-60
2022/03/16 11:03:49;;;;;;;22.20;14.95;;;12.70;95.50;;;;;;4993567;28;20131;-59
2022/03/16 11:06:18;;;;;;;22.13;15.00;;;12.80;96.50;;;;;;4997097;28;20508;-62
2022/03/16 11:08:44;;;;;;;20.33;14.23;;;12.80;96.10;;;;;;5000749;28;20085;-63
2022/03/16 11:13:56;;;;;;;20.15;14.00;;;13.00;95.90;;;;;;4988690;28;20080;-61
2022/03/16 11:16:24;;;;;;;22.75;15.27;;;13.00;94.90;;;;;;4989115;28;20113;-60
2022/03/16 11:18:51;;;;;;;21.77;14.70;;;13.10;93.90;;;;;;4989858;28;20114;-62
2022/03/16 11:21:24;;;;;;;20.60;14.93;;;13.00;94.10;;;;;;5006319;28;20150;-63
2022/03/16 11:26:53;;;;;;;22.88;16.05;;;13.10;94.00;;;;;;4995871;28;20412;-61
2022/03/16 11:29:32;;;;;;;22.05;15.38;;;13.20;95.90;;;;;;4996277;28;20042;-59
2022/03/16 11:32:09;;;;;;;22.40;15.98;;;13.50;94.90;;;;;;5007005;28;20084;-63
2022/03/16 11:34:36;;;;;;;24.40;15.18;;;13.50;92.50;;;;;;4988442;28;20038;-61
2022/03/16 11:37:09;;;;;;;20.58;15.02;;;13.50;91.80;;;;;;4988319;28;20061;-61
2022/03/16 11:39:44;;;;;;;24.05;13.85;;;13.60;95.20;;;;;;4995255;28;20046;-62
2022/03/16 11:42:11;;;;;;;19.40;15.02;;;13.80;93.60;;;;;;5005324;28;20084;-62
2022/03/16 11:44:38;;;;;;;21.85;14.48;;;13.80;91.30;;;;;;4987391;28;20317;-61
2022/03/16 11:47:09;;;;;;;16.38;13.30;;;13.90;92.30;;;;;;5000087;28;20414;-62
2022/03/16 11:49:38;;;;;;;18.92;13.68;;;13.90;90.80;;;;;;4990509;28;20478;-59
2022/03/16 11:52:05;;;;;;;20.88;14.60;;;14.00;91.10;;;;;;5004609;28;20038;-62
2022/03/16 11:54:45;;;;;;;17.90;13.45;;;14.00;91.20;;;;;;4992420;28;20407;-62
2022/03/16 11:57:12;;;;;;;19.52;14.45;;;14.10;90.00;;;;;;5003682;28;20514;-61
2022/03/16 11:59:44;;;;;;;18.38;13.10;;;14.20;90.70;;;;;;4990580;28;20452;-62
2022/03/16 12:02:11;;;;;;;18.15;13.68;;;14.20;84.80;;;;;;4999398;28;20399;-61
2022/03/16 12:04:39;;;;;;;17.95;13.30;;;14.20;86.70;;;;;;4992439;28;20046;-60
2022/03/16 12:07:11;;;;;;;19.70;14.32;;;14.20;83.70;;;;;;4988255;28;20034;-63
2022/03/16 12:09:46;;;;;;;20.40;13.27;;;14.20;83.00;;;;;;5004355;28;20095;-60
2022/03/16 12:15:09;;;;;;;18.83;14.00;;;14.20;80.50;;;;;;5003932;28;20430;-63
2022/03/16 12:17:35;;;;;;;16.70;13.30;;;14.30;84.60;;;;;;4999084;28;20146;-62
2022/03/16 12:20:16;;;;;;;17.75;13.80;;;14.30;79.20;;;;;;5001165;28;20534;-62
2022/03/16 12:22:47;;;;;;;15.45;12.80;;;14.30;78.80;;;;;;5002545;28;20521;-60
2022/03/16 12:25:37;;;;;;;19.33;13.43;;;14.40;81.90;;;;;;5003358;28;20076;-58
2022/03/16 12:31:00;;;;;;;17.73;13.73;;;14.40;79.10;;;;;;4987749;28;20496;-62
2022/03/16 12:33:29;;;;;;;17.00;13.75;;;14.40;78.20;;;;;;4993377;28;20387;-61
2022/03/16 12:36:04;;;;;;;18.67;14.02;;;14.40;77.10;;;;;;5004260;28;20044;-60
2022/03/16 12:38:32;;;;;;;16.50;14.35;;;14.40;77.20;;;;;;5005238;28;20045;-61
2022/03/16 12:43:44;;;;;;;21.95;15.38;;;14.50;76.50;;;;;;4991172;28;20034;-62
2022/03/16 12:46:30;;;;;;;17.65;14.25;;;14.50;78.10;;;;;;5005953;28;20042;-62
2022/03/16 12:49:01;;;;;;;19.75;14.93;;;14.50;78.10;;;;;;4989747;28;20069;-62
2022/03/16 12:51:44;;;;;;;19.10;14.02;;;14.60;78.10;;;;;;5004064;28;20083;-62
2022/03/16 12:54:33;;;;;;;19.27;13.40;;;14.60;76.00;;;;;;5006243;28;20037;-63
2022/03/16 12:57:06;;;;;;;16.85;14.30;;;14.60;75.90;;;;;;5004782;28;20124;-63